This is the latest recevied weather packets stored in our database for station/object CE4TQY-10. If no packets are shown the sender has not sent any weather packets the latest 1 day(s).
| Time | Temp. | Humidity | Pressure | Rain* | Wind** | Luminosity | Snow |
|---|---|---|---|---|---|---|---|
| 1778044045 | 13.33° C | 76% | 1017.8 hPa | - | - | - | - |
| 1778043144 | 12.78° C | 76% | 1017.9 hPa | - | - | - | - |
| 1778042243 | 12.78° C | 76% | 1018 hPa | - | - | - | - |
| 1778041342 | 12.78° C | 77% | 1017.9 hPa | - | - | - | - |
| 1778040441 | 12.78° C | 77% | 1018.1 hPa | - | - | - | - |
| 1778039540 | 12.78° C | 77% | 1018.2 hPa | - | - | - | - |
| 1778038639 | 12.78° C | 77% | 1018.3 hPa | - | - | - | - |
| 1778036838 | 12.78° C | 77% | 1018.4 hPa | - | - | - | - |
| 1778035936 | 13.33° C | 76% | 1018.6 hPa | - | - | - | - |
| 1778035073 | 13.33° C | 77% | 1018.6 hPa | - | - | - | - |
| 1778035035 | 13.33° C | 77% | 1018.6 hPa | - | - | - | - |
| 1778034134 | 13.33° C | 75% | 1018.5 hPa | - | - | - | - |
| 1778033233 | 13.33° C | 74% | 1018.4 hPa | - | - | - | - |
| 1778032365 | 13.89° C | 73% | 1018.2 hPa | - | - | - | - |
| 1778031431 | 13.89° C | 72% | 1018.1 hPa | - | - | - | - |
| 1778030530 | 13.89° C | 71% | 1018.3 hPa | - | - | - | - |
| 1778028728 | 14.44° C | 70% | 1018.1 hPa | - | - | - | - |
| 1778027827 | 14.44° C | 70% | 1018.2 hPa | - | - | - | - |
| 1778026926 | 14.44° C | 69% | 1018.2 hPa | - | - | - | - |
| 1778022422 | 16.11° C | 62% | 1017.3 hPa | - | - | - | - |
| 1778021521 | 16.67° C | 61% | 1017.2 hPa | - | - | - | - |
| 1778017016 | 17.22° C | 56% | 1016.3 hPa | - | - | - | - |
| 1778013411 | 17.78° C | 51% | 1016 hPa | - | - | - | - |
| 1778012510 | 17.78° C | 51% | 1016 hPa | - | - | - | - |
| 1778011609 | 17.78° C | 51% | 1016 hPa | - | - | - | - |
* Rain since midnight (hover to see other rain measurements)
** Current wind speed in m/s (hover to see current wind gust speed)